NCAR-RAP Real-Time Weather Data

Output produced by METARs form (17 December 2018  07:51 UTC)
found at http://weather.rap.ucar.edu/surface/
 
Conditions at: KFMY observed 17 December 2018  06:53 UTC
Temperature: 14.4°C (58°F)
Dewpoint: 12.2°C (54°F) [RH = 87%]
Pressure (altimeter): 30.12 inches Hg (1020.1 mb)
[Sea-level pressure: 1020.2 mb]
Winds: calm
Visibility: 10 or more miles (16+ km)
Ceiling: at least 12,000 feet AGL
Clouds: sky clear below 12,000 feet AGL
Present Weather: automated observation with no human augmentation;
there may or may not be significant weather present at this time
KFMY 170653Z AUTO 00000KT 10SM CLR 14/12 A3012 RMK AO2 SLP202 T01440122

Conditions at: KFMY observed 17 December 2018  05:53 UTC
Temperature: 15.0°C (59°F)
Dewpoint: 11.7°C (53°F) [RH = 81%]
Pressure (altimeter): 30.13 inches Hg (1020.4 mb)
[Sea-level pressure: 1020.3 mb]
Winds: calm
Visibility: 10 or more miles (16+ km)
Ceiling: at least 12,000 feet AGL
Clouds: sky clear below 12,000 feet AGL
Present Weather: automated observation with no human augmentation;
there may or may not be significant weather present at this time
KFMY 170553Z AUTO 00000KT 10SM CLR 15/12 A3013 RMK AO2 SLP203 T01500117 10194 20150 58006

Conditions at: KFMY observed 17 December 2018  04:53 UTC
Temperature: 15.6°C (60°F)
Dewpoint: 12.2°C (54°F) [RH = 80%]
Pressure (altimeter): 30.14 inches Hg (1020.7 mb)
[Sea-level pressure: 1020.8 mb]
Winds: from the NNE (20 degrees) at 6 MPH (5 knots; 2.6 m/s)
Visibility: 10 or more miles (16+ km)
Ceiling: at least 12,000 feet AGL
Clouds: sky clear below 12,000 feet AGL
Present Weather: automated observation with no human augmentation;
there may or may not be significant weather present at this time
KFMY 170453Z AUTO 02005KT 10SM CLR 16/12 A3014 RMK AO2 SLP208 T01560122 402560156

Conditions at: KFMY observed 17 December 2018  03:53 UTC
Temperature: 17.2°C (63°F)
Dewpoint: 12.8°C (55°F) [RH = 75%]
Pressure (altimeter): 30.15 inches Hg (1021.1 mb)
[Sea-level pressure: 1021.2 mb]
Winds: from the N (360 degrees) at 7 MPH (6 knots; 3.1 m/s)
Visibility: 10 or more miles (16+ km)
Ceiling: 4700 feet AGL
Clouds: overcast cloud deck at 4700 feet AGL
Present Weather: automated observation with no human augmentation;
there may or may not be significant weather present at this time
KFMY 170353Z AUTO 36006KT 10SM OVC047 17/13 A3015 RMK AO2 SLP212 T01720128

Conditions at: KFMY observed 17 December 2018  02:53 UTC
Temperature: 17.8°C (64°F)
Dewpoint: 13.9°C (57°F) [RH = 78%]
Pressure (altimeter): 30.15 inches Hg (1021.1 mb)
[Sea-level pressure: 1021.0 mb]
Winds: from the N (360 degrees) at 12 MPH (10 knots; 5.2 m/s)
Visibility: 10 or more miles (16+ km)
Ceiling: 4700 feet AGL
Clouds: overcast cloud deck at 4700 feet AGL
Present Weather: automated observation with no human augmentation;
there may or may not be significant weather present at this time
KFMY 170253Z AUTO 36010KT 10SM OVC047 18/14 A3015 RMK AO2 SLP210 T01780139 51013

Conditions at: KFMY observed 17 December 2018  01:53 UTC
Temperature: 18.3°C (65°F)
Dewpoint: 15.0°C (59°F) [RH = 81%]
Pressure (altimeter): 30.14 inches Hg (1020.7 mb)
[Sea-level pressure: 1020.8 mb]
Winds: from the NNW (330 degrees) at 6 MPH (5 knots; 2.6 m/s)
Visibility: 10 or more miles (16+ km)
Ceiling: 4800 feet AGL
Clouds: overcast cloud deck at 4800 feet AGL
Present Weather: no significant weather observed at this time
KFMY 170153Z 33005KT 10SM OVC048 18/15 A3014 RMK AO2 SLP208 T01830150

Conditions at: KFMY observed 17 December 2018  00:53 UTC
Temperature: 18.9°C (66°F)
Dewpoint: 15.0°C (59°F) [RH = 78%]
Pressure (altimeter): 30.13 inches Hg (1020.4 mb)
[Sea-level pressure: 1020.4 mb]
Winds: from the NW (310 degrees) at 6 MPH (5 knots; 2.6 m/s)
Visibility: 10 or more miles (16+ km)
Ceiling: at least 12,000 feet AGL
Clouds: few clouds at 5000 feet AGL
Present Weather: no significant weather observed at this time
KFMY 170053Z 31005KT 10SM FEW050 19/15 A3013 RMK AO2 SLP204 T01890150

Conditions at: KFMY observed 16 December 2018  23:53 UTC
Temperature: 19.4°C (67°F)
Dewpoint: 15.0°C (59°F) [RH = 76%]
Pressure (altimeter): 30.11 inches Hg (1019.7 mb)
[Sea-level pressure: 1019.7 mb]
Winds: from the NW (320 degrees) at 8 MPH (7 knots; 3.6 m/s)
Visibility: 10 or more miles (16+ km)
Ceiling: at least 12,000 feet AGL
Clouds: sky clear below 12,000 feet AGL
Present Weather: no significant weather observed at this time
KFMY 162353Z 32007KT 10SM CLR 19/15 A3011 RMK AO2 SLP197 T01940150 10256 20194 53016

Conditions at: KFMY observed 16 December 2018  22:53 UTC
Temperature: 20.6°C (69°F)
Dewpoint: 15.0°C (59°F) [RH = 70%]
Pressure (altimeter): 30.09 inches Hg (1019.0 mb)
[Sea-level pressure: 1019.1 mb]
Winds: from the WNW (300 degrees) at 7 MPH (6 knots; 3.1 m/s)
Visibility: 10 or more miles (16+ km)
Ceiling: at least 12,000 feet AGL
Clouds: sky clear below 12,000 feet AGL
Present Weather: no significant weather observed at this time
KFMY 162253Z 30006KT 10SM CLR 21/15 A3009 RMK AO2 SLP191 T02060150

Conditions at: KFMY observed 16 December 2018  21:53 UTC
Temperature: 22.2°C (72°F)
Dewpoint: 14.4°C (58°F) [RH = 61%]
Pressure (altimeter): 30.08 inches Hg (1018.7 mb)
[Sea-level pressure: 1018.7 mb]
Winds: from the NW (320 degrees) at 10 MPH (9 knots; 4.7 m/s)
Visibility: 10 or more miles (16+ km)
Ceiling: at least 12,000 feet AGL
Clouds: sky clear below 12,000 feet AGL
Present Weather: no significant weather observed at this time
KFMY 162153Z 32009KT 10SM CLR 22/14 A3008 RMK AO2 SLP187 T02220144

Conditions at: KFMY observed 16 December 2018  20:53 UTC
Temperature: 23.3°C (74°F)
Dewpoint: 15.6°C (60°F) [RH = 62%]
Pressure (altimeter): 30.06 inches Hg (1018.0 mb)
[Sea-level pressure: 1018.2 mb]
Winds: from the NW (310 degrees) at 12 MPH (10 knots; 5.2 m/s)
Visibility: 10 or more miles (16+ km)
Ceiling: at least 12,000 feet AGL
Clouds: scattered clouds at 3700 feet AGL
scattered clouds at 4600 feet AGL
Present Weather: no significant weather observed at this time
KFMY 162053Z 31010KT 10SM SCT037 SCT046 23/16 A3006 RMK AO2 SLP182 T02330156 55005

Conditions at: KFMY observed 16 December 2018  19:53 UTC
Temperature: 24.4°C (76°F)
Dewpoint: 14.4°C (58°F) [RH = 54%]
Pressure (altimeter): 30.05 inches Hg (1017.7 mb)
[Sea-level pressure: 1017.7 mb]
Winds: from the W (270 degrees) at 12 MPH (10 knots; 5.2 m/s)
Visibility: 10 or more miles (16+ km)
Ceiling: at least 12,000 feet AGL
Clouds: sky clear below 12,000 feet AGL
Present Weather: no significant weather observed at this time
KFMY 161953Z 27010KT 10SM CLR 24/14 A3005 RMK AO2 SLP177 T02440144

Conditions at: KFMY observed 16 December 2018  18:53 UTC
Temperature: 25.6°C (78°F)
Dewpoint: 12.8°C (55°F) [RH = 45%]
Pressure (altimeter): 30.06 inches Hg (1018.0 mb)
[Sea-level pressure: 1017.9 mb]
Winds: from the W (270 degrees) at 14 MPH (12 knots; 6.2 m/s)
Visibility: 10 or more miles (16+ km)
Ceiling: at least 12,000 feet AGL
Clouds: sky clear below 12,000 feet AGL
Present Weather: no significant weather observed at this time
KFMY 161853Z 27012KT 10SM CLR 26/13 A3006 RMK AO2 SLP179 T02560128

Conditions at: KFMY observed 16 December 2018  17:53 UTC
Temperature: 25.0°C (77°F)
Dewpoint: 12.2°C (54°F) [RH = 45%]
Pressure (altimeter): 30.08 inches Hg (1018.7 mb)
[Sea-level pressure: 1018.7 mb]
Winds: from the WNW (290 degrees) at 14 MPH (12 knots; 6.2 m/s)
Visibility: 10 or more miles (16+ km)
Ceiling: at least 12,000 feet AGL
Clouds: sky clear below 12,000 feet AGL
Present Weather: no significant weather observed at this time
KFMY 161753Z 29012KT 10SM CLR 25/12 A3008 RMK AO2 SLP187 T02500122 10256 20161 58028

Conditions at: KFMY observed 16 December 2018  16:53 UTC
Temperature: 24.4°C (76°F)
Dewpoint: 14.4°C (58°F) [RH = 54%]
Pressure (altimeter): 30.11 inches Hg (1019.7 mb)
[Sea-level pressure: 1019.9 mb]
Winds: from the WNW (290 degrees) at 7 MPH (6 knots; 3.1 m/s)
Visibility: 10 or more miles (16+ km)
Ceiling: at least 12,000 feet AGL
Clouds: few clouds at 4500 feet AGL
Present Weather: no significant weather observed at this time
KFMY 161653Z 29006KT 10SM FEW045 24/14 A3011 RMK AO2 SLP199 T02440144

Conditions at: KFMY observed 16 December 2018  15:53 UTC
Temperature: 23.9°C (75°F)
Dewpoint: 16.1°C (61°F) [RH = 62%]
Pressure (altimeter): 30.15 inches Hg (1021.1 mb)
[Sea-level pressure: 1021.0 mb]
Winds: from the NNW (330 degrees) at 6 MPH (5 knots; 2.6 m/s)
Visibility: 10 or more miles (16+ km)
Ceiling: at least 12,000 feet AGL
Clouds: sky clear below 12,000 feet AGL
Present Weather: no significant weather observed at this time
KFMY 161553Z 33005KT 10SM CLR 24/16 A3015 RMK AO2 SLP210 T02390161

Conditions at: KFMY observed 16 December 2018  14:53 UTC
Temperature: 22.2°C (72°F)
Dewpoint: 17.2°C (63°F) [RH = 73%]
Pressure (altimeter): 30.16 inches Hg (1021.4 mb)
[Sea-level pressure: 1021.4 mb]
Winds: calm
Visibility: 10 or more miles (16+ km)
Ceiling: at least 12,000 feet AGL
Clouds: sky clear below 12,000 feet AGL
Present Weather: no significant weather observed at this time
KFMY 161453Z 00000KT 10SM CLR 22/17 A3016 RMK AO2 SLP214 T02220172 51015

Conditions at: KFMY observed 16 December 2018  13:53 UTC
Temperature: 18.9°C (66°F)
Dewpoint: 17.8°C (64°F) [RH = 93%]
Pressure (altimeter): 30.15 inches Hg (1021.1 mb)
[Sea-level pressure: 1021.3 mb]
Winds: calm
Visibility: 10 or more miles (16+ km)
Ceiling: 6000 feet AGL
Clouds: broken clouds at 6000 feet AGL
Present Weather: no significant weather observed at this time
KFMY 161353Z 00000KT 10SM BKN060 19/18 A3015 RMK AO2 SLP213 T01890178

Conditions at: KFMY observed 16 December 2018  12:53 UTC
Temperature: 17.2°C (63°F)
Dewpoint: 16.7°C (62°F) [RH = 97%]
Pressure (altimeter): 30.14 inches Hg (1020.7 mb)
[Sea-level pressure: 1020.6 mb]
Winds: calm
Visibility: 10 or more miles (16+ km)
Ceiling: at least 12,000 feet AGL
Clouds: few clouds at 4200 feet AGL
scattered clouds at 6000 feet AGL
Present Weather: no significant weather observed at this time
KFMY 161253Z 00000KT 10SM FEW042 SCT060 17/17 A3014 RMK AO2 SLP206 T01720167

Conditions at: KFMY observed 16 December 2018  11:53 UTC
Temperature: 16.1°C (61°F)
Dewpoint: 15.6°C (60°F) [RH = 97%]
Pressure (altimeter): 30.11 inches Hg (1019.7 mb)
[Sea-level pressure: 1019.9 mb]
Winds: calm
Visibility: 9 miles (14 km)
Ceiling: 3800 feet AGL
Clouds: broken clouds at 3800 feet AGL
overcast cloud deck at 6000 feet AGL
Present Weather: no significant weather observed at this time
KFMY 161153Z 00000KT 9SM BKN038 OVC060 16/16 A3011 RMK AO2 SLP199 T01610156 10178 20156 53010

Conditions at: KFMY observed 16 December 2018  10:53 UTC
Temperature: 16.1°C (61°F)
Dewpoint: 15.6°C (60°F) [RH = 97%]
Pressure (altimeter): 30.10 inches Hg (1019.4 mb)
[Sea-level pressure: 1019.4 mb]
Winds: calm
Visibility: 10 or more miles (16+ km)
Ceiling: at least 12,000 feet AGL
Clouds: scattered clouds at 700 feet AGL
Present Weather: automated observation with no human augmentation;
there may or may not be significant weather present at this time
KFMY 161053Z AUTO 00000KT 10SM SCT007 16/16 A3010 RMK AO2 SLP194 T01610156

Conditions at: KFMY observed 16 December 2018  09:53 UTC
Temperature: 16.1°C (61°F)
Dewpoint: 15.6°C (60°F) [RH = 97%]
Pressure (altimeter): 30.09 inches Hg (1019.0 mb)
[Sea-level pressure: 1019.1 mb]
Winds: calm
Visibility: 9 miles (14 km)
Ceiling: at least 12,000 feet AGL
Clouds: sky clear below 12,000 feet AGL
Present Weather: automated observation with no human augmentation;
there may or may not be significant weather present at this time
KFMY 160953Z AUTO 00000KT 9SM CLR 16/16 A3009 RMK AO2 SLP191 T01610156

Conditions at: KFMY observed 16 December 2018  08:53 UTC
Temperature: 16.7°C (62°F)
Dewpoint: 16.1°C (61°F) [RH = 96%]
Pressure (altimeter): 30.08 inches Hg (1018.7 mb)
[Sea-level pressure: 1018.9 mb]
Winds: calm
Visibility: 10 or more miles (16+ km)
Ceiling: at least 12,000 feet AGL
Clouds: sky clear below 12,000 feet AGL
Present Weather: automated observation with no human augmentation;
there may or may not be significant weather present at this time
KFMY 160853Z AUTO 00000KT 10SM CLR 17/16 A3008 RMK AO2 SLP189 T01670161 55003

Conditions at: KFMY observed 16 December 2018  07:53 UTC
Temperature: 16.7°C (62°F)
Dewpoint: 16.1°C (61°F) [RH = 96%]
Pressure (altimeter): 30.08 inches Hg (1018.7 mb)
[Sea-level pressure: 1018.7 mb]
Winds: from the S (170 degrees) at 3 MPH (3 knots; 1.6 m/s)
Visibility: 10 or more miles (16+ km)
Ceiling: at least 12,000 feet AGL
Clouds: sky clear below 12,000 feet AGL
Present Weather: automated observation with no human augmentation;
there may or may not be significant weather present at this time
KFMY 160753Z AUTO 17003KT 10SM CLR 17/16 A3008 RMK AO2 SLP187 T01670161